sensor_id;sensor_type;location;lat;lon;timestamp;temperature;humidity
16823;DHT22;8528;49.976;11.858;2023-02-11T00:02:07;0.10;99.90
16823;DHT22;8528;49.976;11.858;2023-02-11T00:04:34;0.00;99.90
16823;DHT22;8528;49.976;11.858;2023-02-11T00:07:01;0.00;99.90
16823;DHT22;8528;49.976;11.858;2023-02-11T00:09:28;0.00;99.90
16823;DHT22;8528;49.976;11.858;2023-02-11T00:11:57;-0.10;99.90
16823;DHT22;8528;49.976;11.858;2023-02-11T00:14:24;-0.10;99.90
16823;DHT22;8528;49.976;11.858;2023-02-11T00:16:50;-0.10;99.90
16823;DHT22;8528;49.976;11.858;2023-02-11T00:19:17;-0.10;99.90
16823;DHT22;8528;49.976;11.858;2023-02-11T00:21:44;-0.20;99.90
16823;DHT22;8528;49.976;11.858;2023-02-11T00:24:11;-0.30;99.90
16823;DHT22;8528;49.976;11.858;2023-02-11T00:26:37;-0.30;99.90
16823;DHT22;8528;49.976;11.858;2023-02-11T00:29:05;-0.40;99.90
16823;DHT22;8528;49.976;11.858;2023-02-11T00:31:32;-0.40;99.90
16823;DHT22;8528;49.976;11.858;2023-02-11T00:33:59;-0.30;99.90
16823;DHT22;8528;49.976;11.858;2023-02-11T00:36:27;-0.30;99.90
16823;DHT22;8528;49.976;11.858;2023-02-11T00:38:55;-0.20;99.90
16823;DHT22;8528;49.976;11.858;2023-02-11T00:41:23;-0.20;99.90
16823;DHT22;8528;49.976;11.858;2023-02-11T00:43:50;-0.10;99.90
16823;DHT22;8528;49.976;11.858;2023-02-11T00:46:18;-0.20;99.90
16823;DHT22;8528;49.976;11.858;2023-02-11T00:48:45;-0.20;99.90
16823;DHT22;8528;49.976;11.858;2023-02-11T00:51:11;-0.30;99.90
16823;DHT22;8528;49.976;11.858;2023-02-11T00:53:38;-0.30;99.90
16823;DHT22;8528;49.976;11.858;2023-02-11T00:56:06;-0.30;99.90
16823;DHT22;8528;49.976;11.858;2023-02-11T00:58:33;-0.30;99.90
16823;DHT22;8528;49.976;11.858;2023-02-11T01:01:00;-0.30;99.90
16823;DHT22;8528;49.976;11.858;2023-02-11T01:03:27;-0.20;99.90
16823;DHT22;8528;49.976;11.858;2023-02-11T01:05:54;-0.20;99.90
16823;DHT22;8528;49.976;11.858;2023-02-11T01:08:21;-0.30;99.90
16823;DHT22;8528;49.976;11.858;2023-02-11T01:11:00;-0.30;99.90
16823;DHT22;8528;49.976;11.858;2023-02-11T01:13:28;-0.40;99.90
16823;DHT22;8528;49.976;11.858;2023-02-11T01:15:56;-0.40;99.90
16823;DHT22;8528;49.976;11.858;2023-02-11T01:18:23;-0.40;99.90
16823;DHT22;8528;49.976;11.858;2023-02-11T01:20:51;-0.40;99.90
16823;DHT22;8528;49.976;11.858;2023-02-11T01:23:19;-0.50;99.90
16823;DHT22;8528;49.976;11.858;2023-02-11T01:25:46;-0.50;99.90
16823;DHT22;8528;49.976;11.858;2023-02-11T01:28:22;-0.40;99.90
16823;DHT22;8528;49.976;11.858;2023-02-11T01:30:51;-0.40;99.90
16823;DHT22;8528;49.976;11.858;2023-02-11T01:33:18;-0.30;99.90
16823;DHT22;8528;49.976;11.858;2023-02-11T01:35:45;-0.20;99.90
16823;DHT22;8528;49.976;11.858;2023-02-11T01:38:18;-0.10;99.90
16823;DHT22;8528;49.976;11.858;2023-02-11T01:40:47;-0.10;99.90
16823;DHT22;8528;49.976;11.858;2023-02-11T01:43:15;0.00;99.90
16823;DHT22;8528;49.976;11.858;2023-02-11T01:46:03;0.10;99.90
16823;DHT22;8528;49.976;11.858;2023-02-11T01:48:38;0.10;99.90
16823;DHT22;8528;49.976;11.858;2023-02-11T01:51:14;0.10;99.90
16823;DHT22;8528;49.976;11.858;2023-02-11T01:53:43;0.20;99.90
16823;DHT22;8528;49.976;11.858;2023-02-11T01:56:29;0.20;99.90
16823;DHT22;8528;49.976;11.858;2023-02-11T01:59:19;0.20;99.90
16823;DHT22;8528;49.976;11.858;2023-02-11T02:01:55;0.20;99.90
16823;DHT22;8528;49.976;11.858;2023-02-11T02:04:22;0.20;99.90
16823;DHT22;8528;49.976;11.858;2023-02-11T02:06:59;0.20;99.90
16823;DHT22;8528;49.976;11.858;2023-02-11T02:09:32;0.20;99.90
16823;DHT22;8528;49.976;11.858;2023-02-11T02:12:02;0.10;99.90
16823;DHT22;8528;49.976;11.858;2023-02-11T02:14:29;0.10;99.90
16823;DHT22;8528;49.976;11.858;2023-02-11T02:16:55;0.10;99.90
16823;DHT22;8528;49.976;11.858;2023-02-11T02:33:35;0.00;99.90
16823;DHT22;8528;49.976;11.858;2023-02-11T02:36:33;0.00;99.90
16823;DHT22;8528;49.976;11.858;2023-02-11T02:39:07;0.10;99.90
16823;DHT22;8528;49.976;11.858;2023-02-11T02:41:36;0.30;99.90
16823;DHT22;8528;49.976;11.858;2023-02-11T02:44:06;0.40;99.90
16823;DHT22;8528;49.976;11.858;2023-02-11T02:46:34;0.40;99.90
16823;DHT22;8528;49.976;11.858;2023-02-11T02:49:02;0.50;99.90
16823;DHT22;8528;49.976;11.858;2023-02-11T02:57:10;0.50;99.90
16823;DHT22;8528;49.976;11.858;2023-02-11T02:59:52;0.60;99.90
16823;DHT22;8528;49.976;11.858;2023-02-11T03:02:38;0.80;99.90
16823;DHT22;8528;49.976;11.858;2023-02-11T03:10:30;0.80;99.90
16823;DHT22;8528;49.976;11.858;2023-02-11T03:12:58;0.90;99.90
16823;DHT22;8528;49.976;11.858;2023-02-11T03:15:29;0.90;99.90
16823;DHT22;8528;49.976;11.858;2023-02-11T03:17:59;0.90;99.90
16823;DHT22;8528;49.976;11.858;2023-02-11T03:20:29;1.00;99.90
16823;DHT22;8528;49.976;11.858;2023-02-11T03:26:22;1.00;99.90
16823;DHT22;8528;49.976;11.858;2023-02-11T03:29:09;0.90;99.90
16823;DHT22;8528;49.976;11.858;2023-02-11T03:31:53;0.80;99.90
16823;DHT22;8528;49.976;11.858;2023-02-11T03:34:54;0.80;99.90
16823;DHT22;8528;49.976;11.858;2023-02-11T03:39:56;0.70;99.90
16823;DHT22;8528;49.976;11.858;2023-02-11T03:42:27;0.70;99.90
16823;DHT22;8528;49.976;11.858;2023-02-11T03:45:00;0.70;99.90
16823;DHT22;8528;49.976;11.858;2023-02-11T03:47:31;0.70;99.90
16823;DHT22;8528;49.976;11.858;2023-02-11T03:50:03;0.70;99.90
16823;DHT22;8528;49.976;11.858;2023-02-11T03:52:31;0.70;99.90
16823;DHT22;8528;49.976;11.858;2023-02-11T03:55:02;0.70;99.90
16823;DHT22;8528;49.976;11.858;2023-02-11T03:57:30;0.80;99.90
16823;DHT22;8528;49.976;11.858;2023-02-11T04:00:00;0.80;99.90
16823;DHT22;8528;49.976;11.858;2023-02-11T04:02:30;0.80;99.90
16823;DHT22;8528;49.976;11.858;2023-02-11T04:04:58;0.90;99.90
16823;DHT22;8528;49.976;11.858;2023-02-11T04:07:26;0.90;99.90
16823;DHT22;8528;49.976;11.858;2023-02-11T04:09:53;0.80;99.90
16823;DHT22;8528;49.976;11.858;2023-02-11T04:12:20;0.80;99.90
16823;DHT22;8528;49.976;11.858;2023-02-11T04:14:47;0.80;99.90
16823;DHT22;8528;49.976;11.858;2023-02-11T04:17:14;0.80;99.90
16823;DHT22;8528;49.976;11.858;2023-02-11T04:19:41;0.90;99.90
16823;DHT22;8528;49.976;11.858;2023-02-11T04:22:07;0.90;99.90
16823;DHT22;8528;49.976;11.858;2023-02-11T04:24:34;1.00;99.90
16823;DHT22;8528;49.976;11.858;2023-02-11T04:27:01;1.00;99.90
16823;DHT22;8528;49.976;11.858;2023-02-11T04:29:28;1.10;99.90
16823;DHT22;8528;49.976;11.858;2023-02-11T04:31:55;1.10;99.90
16823;DHT22;8528;49.976;11.858;2023-02-11T04:34:22;1.10;99.90
16823;DHT22;8528;49.976;11.858;2023-02-11T04:36:49;1.10;99.90
16823;DHT22;8528;49.976;11.858;2023-02-11T04:39:16;1.00;99.90
16823;DHT22;8528;49.976;11.858;2023-02-11T04:41:43;1.00;99.90
16823;DHT22;8528;49.976;11.858;2023-02-11T04:44:09;1.00;99.90
16823;DHT22;8528;49.976;11.858;2023-02-11T04:46:36;1.10;99.90
16823;DHT22;8528;49.976;11.858;2023-02-11T04:49:03;1.10;99.90
16823;DHT22;8528;49.976;11.858;2023-02-11T04:51:30;1.00;99.90
16823;DHT22;8528;49.976;11.858;2023-02-11T04:53:57;1.00;99.90
16823;DHT22;8528;49.976;11.858;2023-02-11T04:56:24;1.00;99.90
16823;DHT22;8528;49.976;11.858;2023-02-11T04:58:50;1.00;99.90
16823;DHT22;8528;49.976;11.858;2023-02-11T05:01:17;1.00;99.90
16823;DHT22;8528;49.976;11.858;2023-02-11T05:03:44;0.90;99.90
16823;DHT22;8528;49.976;11.858;2023-02-11T05:06:12;0.90;99.90
16823;DHT22;8528;49.976;11.858;2023-02-11T05:08:38;0.80;99.90
16823;DHT22;8528;49.976;11.858;2023-02-11T05:11:06;0.80;99.90
16823;DHT22;8528;49.976;11.858;2023-02-11T05:13:33;0.80;99.90
16823;DHT22;8528;49.976;11.858;2023-02-11T05:16:00;0.80;99.90
16823;DHT22;8528;49.976;11.858;2023-02-11T05:18:27;0.80;99.90
16823;DHT22;8528;49.976;11.858;2023-02-11T05:20:54;0.80;99.90
16823;DHT22;8528;49.976;11.858;2023-02-11T05:23:20;0.80;99.90
16823;DHT22;8528;49.976;11.858;2023-02-11T05:25:47;0.70;99.90
16823;DHT22;8528;49.976;11.858;2023-02-11T05:28:14;0.80;99.90
16823;DHT22;8528;49.976;11.858;2023-02-11T05:30:41;0.80;99.90
16823;DHT22;8528;49.976;11.858;2023-02-11T05:33:08;0.80;99.90
16823;DHT22;8528;49.976;11.858;2023-02-11T05:35:35;0.90;99.90
16823;DHT22;8528;49.976;11.858;2023-02-11T05:38:04;0.90;99.90
16823;DHT22;8528;49.976;11.858;2023-02-11T05:40:30;0.90;99.90
16823;DHT22;8528;49.976;11.858;2023-02-11T05:42:57;0.90;99.90
16823;DHT22;8528;49.976;11.858;2023-02-11T05:45:24;1.00;99.90
16823;DHT22;8528;49.976;11.858;2023-02-11T05:47:51;1.00;99.90
16823;DHT22;8528;49.976;11.858;2023-02-11T05:50:18;0.90;99.90
16823;DHT22;8528;49.976;11.858;2023-02-11T05:52:45;0.90;99.90
16823;DHT22;8528;49.976;11.858;2023-02-11T05:55:12;0.90;99.90
16823;DHT22;8528;49.976;11.858;2023-02-11T05:57:39;1.00;99.90
16823;DHT22;8528;49.976;11.858;2023-02-11T06:00:07;1.00;99.90
16823;DHT22;8528;49.976;11.858;2023-02-11T06:02:34;1.00;99.90
16823;DHT22;8528;49.976;11.858;2023-02-11T06:05:00;1.00;99.90
16823;DHT22;8528;49.976;11.858;2023-02-11T06:07:27;1.00;99.90
16823;DHT22;8528;49.976;11.858;2023-02-11T06:09:54;1.00;99.90
16823;DHT22;8528;49.976;11.858;2023-02-11T06:12:21;1.00;99.90
16823;DHT22;8528;49.976;11.858;2023-02-11T06:14:47;1.00;99.90
16823;DHT22;8528;49.976;11.858;2023-02-11T06:17:14;1.00;99.90
16823;DHT22;8528;49.976;11.858;2023-02-11T06:19:41;1.00;99.90
16823;DHT22;8528;49.976;11.858;2023-02-11T06:22:08;1.00;99.90
16823;DHT22;8528;49.976;11.858;2023-02-11T06:24:34;1.00;99.90
16823;DHT22;8528;49.976;11.858;2023-02-11T06:27:22;1.00;99.90
16823;DHT22;8528;49.976;11.858;2023-02-11T06:29:49;1.00;99.90
16823;DHT22;8528;49.976;11.858;2023-02-11T06:32:18;1.00;99.90
16823;DHT22;8528;49.976;11.858;2023-02-11T06:35:06;1.10;99.90
16823;DHT22;8528;49.976;11.858;2023-02-11T06:37:35;1.10;99.90
16823;DHT22;8528;49.976;11.858;2023-02-11T06:40:02;1.10;99.90
16823;DHT22;8528;49.976;11.858;2023-02-11T06:42:29;1.20;99.90
16823;DHT22;8528;49.976;11.858;2023-02-11T06:45:04;1.20;99.90
16823;DHT22;8528;49.976;11.858;2023-02-11T06:47:39;1.20;99.90
16823;DHT22;8528;49.976;11.858;2023-02-11T06:50:09;1.10;99.90
16823;DHT22;8528;49.976;11.858;2023-02-11T06:52:36;1.10;99.90
16823;DHT22;8528;49.976;11.858;2023-02-11T06:55:03;1.10;99.90
16823;DHT22;8528;49.976;11.858;2023-02-11T06:57:31;1.10;99.90
16823;DHT22;8528;49.976;11.858;2023-02-11T06:59:57;1.00;99.90
16823;DHT22;8528;49.976;11.858;2023-02-11T07:02:24;1.00;99.90
16823;DHT22;8528;49.976;11.858;2023-02-11T07:04:51;1.00;99.90
16823;DHT22;8528;49.976;11.858;2023-02-11T07:07:18;1.00;99.90
16823;DHT22;8528;49.976;11.858;2023-02-11T07:09:45;1.00;99.90
16823;DHT22;8528;49.976;11.858;2023-02-11T07:12:12;1.10;99.90
16823;DHT22;8528;49.976;11.858;2023-02-11T07:14:39;1.10;99.90
16823;DHT22;8528;49.976;11.858;2023-02-11T07:17:06;1.10;99.90
16823;DHT22;8528;49.976;11.858;2023-02-11T07:19:32;1.10;99.90
16823;DHT22;8528;49.976;11.858;2023-02-11T07:21:59;1.10;99.90
16823;DHT22;8528;49.976;11.858;2023-02-11T07:24:26;1.10;99.90
16823;DHT22;8528;49.976;11.858;2023-02-11T07:26:53;1.10;99.90
16823;DHT22;8528;49.976;11.858;2023-02-11T07:29:20;1.10;99.90
16823;DHT22;8528;49.976;11.858;2023-02-11T07:31:47;1.10;99.90
16823;DHT22;8528;49.976;11.858;2023-02-11T07:34:13;1.10;99.90
16823;DHT22;8528;49.976;11.858;2023-02-11T07:36:40;1.20;99.90
16823;DHT22;8528;49.976;11.858;2023-02-11T07:39:09;1.20;99.90
16823;DHT22;8528;49.976;11.858;2023-02-11T07:41:36;1.20;99.90
16823;DHT22;8528;49.976;11.858;2023-02-11T07:44:03;1.20;99.90
16823;DHT22;8528;49.976;11.858;2023-02-11T07:46:31;1.20;99.90
16823;DHT22;8528;49.976;11.858;2023-02-11T07:48:58;1.20;99.90
16823;DHT22;8528;49.976;11.858;2023-02-11T07:51:27;1.20;99.90
16823;DHT22;8528;49.976;11.858;2023-02-11T07:53:56;1.30;99.90
16823;DHT22;8528;49.976;11.858;2023-02-11T07:56:23;1.20;99.90
16823;DHT22;8528;49.976;11.858;2023-02-11T07:58:50;1.20;99.90
16823;DHT22;8528;49.976;11.858;2023-02-11T08:01:19;1.30;99.90
16823;DHT22;8528;49.976;11.858;2023-02-11T08:03:48;1.30;99.90
16823;DHT22;8528;49.976;11.858;2023-02-11T08:06:17;1.30;99.90
16823;DHT22;8528;49.976;11.858;2023-02-11T08:08:44;1.40;99.90
16823;DHT22;8528;49.976;11.858;2023-02-11T08:11:19;1.40;99.90
16823;DHT22;8528;49.976;11.858;2023-02-11T08:13:47;1.40;99.90
16823;DHT22;8528;49.976;11.858;2023-02-11T08:18:47;1.30;99.90
16823;DHT22;8528;49.976;11.858;2023-02-11T08:21:14;1.40;99.90
16823;DHT22;8528;49.976;11.858;2023-02-11T08:23:42;1.40;99.90
16823;DHT22;8528;49.976;11.858;2023-02-11T08:26:13;1.30;99.90
16823;DHT22;8528;49.976;11.858;2023-02-11T08:28:42;1.30;99.90
16823;DHT22;8528;49.976;11.858;2023-02-11T08:31:12;1.30;99.90
16823;DHT22;8528;49.976;11.858;2023-02-11T08:33:40;1.30;99.90
16823;DHT22;8528;49.976;11.858;2023-02-11T08:36:13;1.40;99.90
16823;DHT22;8528;49.976;11.858;2023-02-11T08:38:40;1.40;99.90
16823;DHT22;8528;49.976;11.858;2023-02-11T08:41:07;1.40;99.90
16823;DHT22;8528;49.976;11.858;2023-02-11T08:43:34;1.50;99.90
16823;DHT22;8528;49.976;11.858;2023-02-11T08:46:02;1.50;99.90
16823;DHT22;8528;49.976;11.858;2023-02-11T08:48:29;1.60;99.90
16823;DHT22;8528;49.976;11.858;2023-02-11T08:50:56;1.60;99.90
16823;DHT22;8528;49.976;11.858;2023-02-11T08:53:23;1.70;99.90
16823;DHT22;8528;49.976;11.858;2023-02-11T08:55:52;1.80;99.90
16823;DHT22;8528;49.976;11.858;2023-02-11T08:58:20;1.90;99.90
16823;DHT22;8528;49.976;11.858;2023-02-11T09:00:48;2.00;99.90
16823;DHT22;8528;49.976;11.858;2023-02-11T09:03:16;2.00;99.90
16823;DHT22;8528;49.976;11.858;2023-02-11T09:05:45;2.10;99.90
16823;DHT22;8528;49.976;11.858;2023-02-11T09:08:12;2.10;99.90
16823;DHT22;8528;49.976;11.858;2023-02-11T09:10:49;2.20;99.90
16823;DHT22;8528;49.976;11.858;2023-02-11T09:13:16;2.20;99.90
16823;DHT22;8528;49.976;11.858;2023-02-11T09:15:46;2.30;99.90
16823;DHT22;8528;49.976;11.858;2023-02-11T09:18:13;2.30;99.90
16823;DHT22;8528;49.976;11.858;2023-02-11T09:20:40;2.30;99.90
16823;DHT22;8528;49.976;11.858;2023-02-11T09:23:08;2.30;99.90
16823;DHT22;8528;49.976;11.858;2023-02-11T09:25:38;2.40;99.90
16823;DHT22;8528;49.976;11.858;2023-02-11T09:28:06;2.40;99.90
16823;DHT22;8528;49.976;11.858;2023-02-11T09:30:33;2.40;99.90
16823;DHT22;8528;49.976;11.858;2023-02-11T09:33:02;2.40;99.90
16823;DHT22;8528;49.976;11.858;2023-02-11T09:35:29;2.50;99.90
16823;DHT22;8528;49.976;11.858;2023-02-11T09:37:56;2.60;99.90
16823;DHT22;8528;49.976;11.858;2023-02-11T09:40:22;2.60;99.90
16823;DHT22;8528;49.976;11.858;2023-02-11T09:42:56;2.70;99.90
16823;DHT22;8528;49.976;11.858;2023-02-11T09:45:30;2.80;99.90
16823;DHT22;8528;49.976;11.858;2023-02-11T09:48:00;2.80;99.90
16823;DHT22;8528;49.976;11.858;2023-02-11T09:50:34;2.80;99.90
16823;DHT22;8528;49.976;11.858;2023-02-11T09:53:25;2.70;99.90
16823;DHT22;8528;49.976;11.858;2023-02-11T09:55:55;2.60;99.90
16823;DHT22;8528;49.976;11.858;2023-02-11T09:58:31;2.60;99.90
16823;DHT22;8528;49.976;11.858;2023-02-11T10:10:28;2.70;99.90
16823;DHT22;8528;49.976;11.858;2023-02-11T10:13:15;2.70;99.90
16823;DHT22;8528;49.976;11.858;2023-02-11T10:16:37;2.80;99.90
16823;DHT22;8528;49.976;11.858;2023-02-11T10:19:01;3.00;99.90
16823;DHT22;8528;49.976;11.858;2023-02-11T10:24:22;3.40;99.90
16823;DHT22;8528;49.976;11.858;2023-02-11T10:26:50;3.60;99.90
16823;DHT22;8528;49.976;11.858;2023-02-11T10:29:27;3.60;99.90
16823;DHT22;8528;49.976;11.858;2023-02-11T10:31:57;3.50;99.90
16823;DHT22;8528;49.976;11.858;2023-02-11T10:34:26;3.40;99.90
16823;DHT22;8528;49.976;11.858;2023-02-11T10:36:52;3.20;99.90
16823;DHT22;8528;49.976;11.858;2023-02-11T10:39:21;3.20;99.90
16823;DHT22;8528;49.976;11.858;2023-02-11T10:42:05;3.30;99.90
16823;DHT22;8528;49.976;11.858;2023-02-11T10:44:47;3.40;99.90
16823;DHT22;8528;49.976;11.858;2023-02-11T10:47:23;3.40;99.90
16823;DHT22;8528;49.976;11.858;2023-02-11T10:49:50;3.20;99.90
16823;DHT22;8528;49.976;11.858;2023-02-11T10:52:23;3.20;99.90
16823;DHT22;8528;49.976;11.858;2023-02-11T10:57:55;3.30;99.90
16823;DHT22;8528;49.976;11.858;2023-02-11T11:00:35;3.20;99.90
16823;DHT22;8528;49.976;11.858;2023-02-11T11:03:20;3.20;99.90
16823;DHT22;8528;49.976;11.858;2023-02-11T11:05:59;3.20;99.90
16823;DHT22;8528;49.976;11.858;2023-02-11T11:08:49;3.10;99.90
16823;DHT22;8528;49.976;11.858;2023-02-11T11:11:24;3.10;99.90
16823;DHT22;8528;49.976;11.858;2023-02-11T11:16:34;3.00;99.90
16823;DHT22;8528;49.976;11.858;2023-02-11T11:21:52;2.90;99.90
16823;DHT22;8528;49.976;11.858;2023-02-11T11:24:22;2.90;99.90
16823;DHT22;8528;49.976;11.858;2023-02-11T11:26:55;2.90;99.90
16823;DHT22;8528;49.976;11.858;2023-02-11T11:33:28;2.80;99.90
16823;DHT22;8528;49.976;11.858;2023-02-11T11:36:02;2.80;99.90
16823;DHT22;8528;49.976;11.858;2023-02-11T11:38:31;2.80;99.90
16823;DHT22;8528;49.976;11.858;2023-02-11T11:41:23;2.80;99.90
16823;DHT22;8528;49.976;11.858;2023-02-11T11:44:11;2.90;99.90
16823;DHT22;8528;49.976;11.858;2023-02-11T11:46:44;3.00;99.90
16823;DHT22;8528;49.976;11.858;2023-02-11T11:49:28;3.00;99.90
16823;DHT22;8528;49.976;11.858;2023-02-11T11:55:13;3.10;99.90
16823;DHT22;8528;49.976;11.858;2023-02-11T11:57:42;3.00;99.90
16823;DHT22;8528;49.976;11.858;2023-02-11T12:00:19;3.10;99.90
16823;DHT22;8528;49.976;11.858;2023-02-11T12:09:03;3.10;99.90
16823;DHT22;8528;49.976;11.858;2023-02-11T12:14:40;3.10;99.90
16823;DHT22;8528;49.976;11.858;2023-02-11T12:17:21;3.20;99.90
16823;DHT22;8528;49.976;11.858;2023-02-11T12:22:59;3.10;99.90
16823;DHT22;8528;49.976;11.858;2023-02-11T12:25:42;3.00;99.90
16823;DHT22;8528;49.976;11.858;2023-02-11T12:37:27;2.80;99.90
16823;DHT22;8528;49.976;11.858;2023-02-11T12:46:10;3.00;99.90
16823;DHT22;8528;49.976;11.858;2023-02-11T12:48:53;3.10;99.90
16823;DHT22;8528;49.976;11.858;2023-02-11T12:52:02;3.20;99.90
16823;DHT22;8528;49.976;11.858;2023-02-11T12:55:06;3.30;99.90
16823;DHT22;8528;49.976;11.858;2023-02-11T12:57:35;3.20;99.90
16823;DHT22;8528;49.976;11.858;2023-02-11T13:00:19;3.20;99.90
16823;DHT22;8528;49.976;11.858;2023-02-11T13:05:39;3.30;99.90
16823;DHT22;8528;49.976;11.858;2023-02-11T13:08:29;3.40;99.90
16823;DHT22;8528;49.976;11.858;2023-02-11T13:11:03;3.50;99.90
16823;DHT22;8528;49.976;11.858;2023-02-11T13:14:32;3.60;99.90
16823;DHT22;8528;49.976;11.858;2023-02-11T13:16:50;3.80;99.90
16823;DHT22;8528;49.976;11.858;2023-02-11T13:21:59;4.00;99.90
16823;DHT22;8528;49.976;11.858;2023-02-11T13:24:39;3.90;99.90
16823;DHT22;8528;49.976;11.858;2023-02-11T13:38:00;3.50;99.90
16823;DHT22;8528;49.976;11.858;2023-02-11T13:40:34;3.40;99.90
16823;DHT22;8528;49.976;11.858;2023-02-11T13:43:10;3.30;99.90
16823;DHT22;8528;49.976;11.858;2023-02-11T13:45:47;3.30;99.90
16823;DHT22;8528;49.976;11.858;2023-02-11T13:48:29;3.30;99.90
16823;DHT22;8528;49.976;11.858;2023-02-11T13:51:06;3.20;99.90
16823;DHT22;8528;49.976;11.858;2023-02-11T13:53:49;3.20;99.90
16823;DHT22;8528;49.976;11.858;2023-02-11T13:56:38;3.20;99.90
16823;DHT22;8528;49.976;11.858;2023-02-11T14:16:20;3.30;99.90
16823;DHT22;8528;49.976;11.858;2023-02-11T14:19:03;3.30;99.90
16823;DHT22;8528;49.976;11.858;2023-02-11T14:21:35;3.30;99.90
16823;DHT22;8528;49.976;11.858;2023-02-11T14:26:48;3.30;99.90
16823;DHT22;8528;49.976;11.858;2023-02-11T14:29:29;3.30;99.90
16823;DHT22;8528;49.976;11.858;2023-02-11T14:32:33;3.30;99.90
16823;DHT22;8528;49.976;11.858;2023-02-11T14:38:38;3.40;99.90
16823;DHT22;8528;49.976;11.858;2023-02-11T14:41:13;3.40;99.90
16823;DHT22;8528;49.976;11.858;2023-02-11T14:43:45;3.40;99.90
16823;DHT22;8528;49.976;11.858;2023-02-11T14:46:18;3.40;99.90
16823;DHT22;8528;49.976;11.858;2023-02-11T14:48:47;3.30;99.90
16823;DHT22;8528;49.976;11.858;2023-02-11T14:51:23;3.30;99.90
16823;DHT22;8528;49.976;11.858;2023-02-11T14:53:54;3.30;99.90
16823;DHT22;8528;49.976;11.858;2023-02-11T14:56:27;3.30;99.90
16823;DHT22;8528;49.976;11.858;2023-02-11T14:58:57;3.30;99.90
16823;DHT22;8528;49.976;11.858;2023-02-11T15:01:38;3.30;99.90
16823;DHT22;8528;49.976;11.858;2023-02-11T15:04:22;3.30;99.90
16823;DHT22;8528;49.976;11.858;2023-02-11T15:06:50;3.30;99.90
16823;DHT22;8528;49.976;11.858;2023-02-11T15:09:19;3.20;99.90
16823;DHT22;8528;49.976;11.858;2023-02-11T15:11:50;3.20;99.90
16823;DHT22;8528;49.976;11.858;2023-02-11T15:14:23;3.20;99.90
16823;DHT22;8528;49.976;11.858;2023-02-11T15:16:54;3.20;99.90
16823;DHT22;8528;49.976;11.858;2023-02-11T15:19:38;3.20;99.90
16823;DHT22;8528;49.976;11.858;2023-02-11T15:22:21;3.20;99.90
16823;DHT22;8528;49.976;11.858;2023-02-11T15:27:45;3.10;99.90
16823;DHT22;8528;49.976;11.858;2023-02-11T15:32:50;3.00;99.90
16823;DHT22;8528;49.976;11.858;2023-02-11T15:35:17;3.00;99.90
16823;DHT22;8528;49.976;11.858;2023-02-11T15:37:44;3.00;99.90
16823;DHT22;8528;49.976;11.858;2023-02-11T15:40:22;3.00;99.90
16823;DHT22;8528;49.976;11.858;2023-02-11T15:48:31;2.90;99.90
16823;DHT22;8528;49.976;11.858;2023-02-11T15:51:11;2.90;99.90
16823;DHT22;8528;49.976;11.858;2023-02-11T15:53:48;2.80;99.90
16823;DHT22;8528;49.976;11.858;2023-02-11T15:56:22;2.80;99.90
16823;DHT22;8528;49.976;11.858;2023-02-11T15:58:52;2.80;99.90
16823;DHT22;8528;49.976;11.858;2023-02-11T16:01:32;2.70;99.90
16823;DHT22;8528;49.976;11.858;2023-02-11T16:04:00;2.70;99.90
16823;DHT22;8528;49.976;11.858;2023-02-11T16:06:42;2.70;99.90
16823;DHT22;8528;49.976;11.858;2023-02-11T16:11:53;2.70;99.90
16823;DHT22;8528;49.976;11.858;2023-02-11T16:14:23;2.60;99.90
16823;DHT22;8528;49.976;11.858;2023-02-11T16:16:55;2.60;99.90
16823;DHT22;8528;49.976;11.858;2023-02-11T16:19:24;2.60;99.90
16823;DHT22;8528;49.976;11.858;2023-02-11T16:21:52;2.60;99.90
16823;DHT22;8528;49.976;11.858;2023-02-11T16:24:32;2.60;99.90
16823;DHT22;8528;49.976;11.858;2023-02-11T16:27:01;2.60;99.90
16823;DHT22;8528;49.976;11.858;2023-02-11T16:29:31;2.60;99.90
16823;DHT22;8528;49.976;11.858;2023-02-11T16:35:09;2.60;99.90
16823;DHT22;8528;49.976;11.858;2023-02-11T16:37:36;2.50;99.90
16823;DHT22;8528;49.976;11.858;2023-02-11T16:40:04;2.50;99.90
16823;DHT22;8528;49.976;11.858;2023-02-11T16:42:31;2.50;99.90
16823;DHT22;8528;49.976;11.858;2023-02-11T16:44:57;2.50;99.90
16823;DHT22;8528;49.976;11.858;2023-02-11T16:47:26;2.50;99.90
16823;DHT22;8528;49.976;11.858;2023-02-11T16:49:55;2.50;99.90
16823;DHT22;8528;49.976;11.858;2023-02-11T16:52:22;2.50;99.90
16823;DHT22;8528;49.976;11.858;2023-02-11T16:54:49;2.60;99.90
16823;DHT22;8528;49.976;11.858;2023-02-11T16:57:19;2.60;99.90
16823;DHT22;8528;49.976;11.858;2023-02-11T16:59:46;2.60;99.90
16823;DHT22;8528;49.976;11.858;2023-02-11T17:02:29;2.50;99.90
16823;DHT22;8528;49.976;11.858;2023-02-11T17:05:02;2.60;99.90
16823;DHT22;8528;49.976;11.858;2023-02-11T17:07:29;2.60;99.90
16823;DHT22;8528;49.976;11.858;2023-02-11T17:09:56;2.60;99.90
16823;DHT22;8528;49.976;11.858;2023-02-11T17:12:23;2.60;99.90
16823;DHT22;8528;49.976;11.858;2023-02-11T17:14:51;2.60;99.90
16823;DHT22;8528;49.976;11.858;2023-02-11T17:17:18;2.60;99.90
16823;DHT22;8528;49.976;11.858;2023-02-11T17:19:45;2.60;99.90
16823;DHT22;8528;49.976;11.858;2023-02-11T17:22:13;2.60;99.90
16823;DHT22;8528;49.976;11.858;2023-02-11T17:24:40;2.60;99.90
16823;DHT22;8528;49.976;11.858;2023-02-11T17:27:07;2.60;99.90
16823;DHT22;8528;49.976;11.858;2023-02-11T17:29:35;2.60;99.90
16823;DHT22;8528;49.976;11.858;2023-02-11T17:32:02;2.60;99.90
16823;DHT22;8528;49.976;11.858;2023-02-11T17:34:29;2.60;99.90
16823;DHT22;8528;49.976;11.858;2023-02-11T17:36:58;2.60;99.90
16823;DHT22;8528;49.976;11.858;2023-02-11T17:39:25;2.60;99.90
16823;DHT22;8528;49.976;11.858;2023-02-11T17:41:53;2.60;99.90
16823;DHT22;8528;49.976;11.858;2023-02-11T17:44:20;2.60;99.90
16823;DHT22;8528;49.976;11.858;2023-02-11T17:46:46;2.60;99.90
16823;DHT22;8528;49.976;11.858;2023-02-11T17:49:14;2.60;99.90
16823;DHT22;8528;49.976;11.858;2023-02-11T17:51:41;2.60;99.90
16823;DHT22;8528;49.976;11.858;2023-02-11T17:54:14;2.60;99.90
16823;DHT22;8528;49.976;11.858;2023-02-11T17:56:41;2.60;99.90
16823;DHT22;8528;49.976;11.858;2023-02-11T17:59:09;2.60;99.90
16823;DHT22;8528;49.976;11.858;2023-02-11T18:01:38;2.60;99.90
16823;DHT22;8528;49.976;11.858;2023-02-11T18:04:06;2.60;99.90
16823;DHT22;8528;49.976;11.858;2023-02-11T18:06:33;2.60;99.90
16823;DHT22;8528;49.976;11.858;2023-02-11T18:09:00;2.50;99.90
16823;DHT22;8528;49.976;11.858;2023-02-11T18:11:31;2.50;99.90
16823;DHT22;8528;49.976;11.858;2023-02-11T18:14:00;2.50;99.90
16823;DHT22;8528;49.976;11.858;2023-02-11T18:16:27;2.50;99.90
16823;DHT22;8528;49.976;11.858;2023-02-11T18:18:58;2.50;99.90
16823;DHT22;8528;49.976;11.858;2023-02-11T18:21:25;2.60;99.90
16823;DHT22;8528;49.976;11.858;2023-02-11T18:23:52;2.50;99.90
16823;DHT22;8528;49.976;11.858;2023-02-11T18:26:20;2.50;99.90
16823;DHT22;8528;49.976;11.858;2023-02-11T18:28:47;2.60;99.90
16823;DHT22;8528;49.976;11.858;2023-02-11T18:31:15;2.60;99.90
16823;DHT22;8528;49.976;11.858;2023-02-11T18:33:42;2.60;99.90
16823;DHT22;8528;49.976;11.858;2023-02-11T18:36:14;2.60;99.90